Peninsula, Ohio
Current Conditions -  °F | °C
As of 6:54 PM on Friday 28 Nov 2014 (Local Time) from KAKR Reporting Station
Light Snow Light Snow  
Wind Chill: 21°   Ceiling: 4800
Heat Index: 28°   Visibility: 7mi
Dew Point: 19°   Wind: 7mph
Humidity: 69%   Direction: 190°S
Pressure: 30.19"   Gusts: NA
Location:  41.24°N, 81.55°W
Report Text: KAKR 282354Z AUTO 19006KT 7SM -SN OVC048 M02/M07 A3019 RMK AO2 SNE11B29 SLP237 P0000 60000 T10221072 11006 21033 58010 $
Loading
Personal Weather Stations






























Interactive Weather Map New forecast layout! Learn more

10-Day Weather Forecast

Advertisements
Track Severe Weather on mobile